Time;durP1;ratioP1;P1;durP2;ratioP2;P2;SDS_P1;SDS_P2;PMS_P1;PMS_P2;Temp;Humidity;BMP_temperature;BMP_pressure;BME280_temperature;BME280_humidity;BME280_pressure;Samples;Min_cycle;Max_cycle;Signal;HPM_P1;HPM_P2
2023/08/12 00:01:25;;;;;;;6.77;3.67;;;;;;;13.81;100.00;101016.91;1464302;88;22424;-78
2023/08/12 00:03:51;;;;;;;8.17;3.37;;;;;;;13.76;100.00;101022.70;1478331;88;21427;-81
2023/08/12 00:06:17;;;;;;;5.83;3.40;;;;;;;13.70;100.00;101021.50;1471628;87;21369;-81
2023/08/12 00:08:43;;;;;;;3.60;3.17;;;;;;;13.67;100.00;101017.81;1473255;87;22256;-80
2023/08/12 00:11:10;;;;;;;5.67;2.73;;;;;;;13.66;100.00;101021.95;1476868;87;21553;-81
2023/08/12 00:13:37;;;;;;;4.37;3.63;;;;;;;13.65;100.00;101012.30;1474351;88;21308;-79
2023/08/12 00:16:03;;;;;;;6.87;3.97;;;;;;;13.65;100.00;101018.95;1466773;88;22298;-79
2023/08/12 00:18:30;;;;;;;7.67;3.50;;;;;;;13.62;100.00;101019.27;1480233;88;21569;-79
2023/08/12 00:20:57;;;;;;;5.87;3.60;;;;;;;13.56;100.00;101018.55;1470032;87;21516;-79
2023/08/12 00:23:23;;;;;;;5.67;3.60;;;;;;;13.50;100.00;101013.34;1475280;87;21317;-80
2023/08/12 00:25:49;;;;;;;7.13;4.00;;;;;;;13.41;100.00;101008.45;1463691;88;21575;-80
2023/08/12 00:28:16;;;;;;;8.00;3.47;;;;;;;13.35;100.00;101005.06;1471517;87;21374;-79
2023/08/12 00:30:42;;;;;;;7.40;3.20;;;;;;;13.34;100.00;101005.20;1476511;87;21352;-80
2023/08/12 00:33:08;;;;;;;5.23;3.60;;;;;;;13.33;100.00;101006.20;1477700;88;22351;-79
2023/08/12 00:35:34;;;;;;;7.60;3.17;;;;;;;13.33;100.00;101007.53;1473319;88;21412;-79
2023/08/12 00:38:00;;;;;;;4.40;3.00;;;;;;;13.35;100.00;101005.06;1464182;87;21574;-79
2023/08/12 00:40:27;;;;;;;6.87;3.40;;;;;;;13.37;100.00;101003.57;1465265;88;22360;-80
2023/08/12 00:42:53;;;;;;;4.37;3.00;;;;;;;13.36;100.00;101002.73;1466811;88;21990;-79
2023/08/12 00:45:19;;;;;;;4.67;3.53;;;;;;;13.32;100.00;101004.01;1478788;88;21324;-80
2023/08/12 00:47:45;;;;;;;6.77;3.30;;;;;;;13.27;100.00;100999.17;1467601;87;21552;-79
2023/08/12 00:50:15;;;;;;;6.33;3.10;;;;;;;13.25;100.00;100998.94;1467701;87;21537;-79
2023/08/12 00:52:42;;;;;;;5.90;3.20;;;;;;;13.25;100.00;101001.59;1476141;87;21397;-79
2023/08/12 00:55:09;;;;;;;10.73;3.73;;;;;;;13.25;100.00;101000.27;1464871;87;21574;-79
2023/08/12 00:57:36;;;;;;;8.23;3.63;;;;;;;13.23;100.00;100995.59;1470920;88;21456;-81
2023/08/12 01:00:04;;;;;;;4.90;3.20;;;;;;;13.21;100.00;100998.41;1478841;87;21308;-80
2023/08/12 01:02:30;;;;;;;6.97;4.00;;;;;;;13.19;100.00;100996.39;1471101;87;21516;-82
2023/08/12 01:04:57;;;;;;;7.80;3.30;;;;;;;13.16;100.00;100993.20;1468978;88;21404;-81
2023/08/12 01:07:23;;;;;;;9.87;4.43;;;;;;;13.13;100.00;100994.84;1475139;88;21338;-80
2023/08/12 01:09:50;;;;;;;5.23;3.40;;;;;;;13.08;100.00;100990.79;1483386;88;21650;-82
2023/08/12 01:12:36;;;;;;;6.60;3.17;;;;;;;13.06;100.00;100999.43;1467896;87;21427;-81
2023/08/12 01:15:25;;;;;;;6.80;3.80;;;;;;;13.07;100.00;100997.59;1471602;87;22336;-81
2023/08/12 01:17:54;;;;;;;6.57;3.10;;;;;;;13.06;100.00;100998.09;1480478;87;21420;-81
2023/08/12 01:20:25;;;;;;;3.37;2.90;;;;;;;13.06;100.00;100999.43;1470908;87;21398;-81
2023/08/12 01:23:14;;;;;;;10.87;4.10;;;;;;;13.04;100.00;101000.06;1484381;88;22711;-82
2023/08/12 01:25:42;;;;;;;9.13;3.60;;;;;;;13.06;100.00;100996.77;1471404;88;21650;-79
2023/08/12 01:28:09;;;;;;;7.70;3.90;;;;;;;13.07;100.00;101003.75;1474331;87;21383;-80
2023/08/12 01:30:41;;;;;;;7.43;3.73;;;;;;;13.07;100.00;100998.43;1473670;87;21368;-79
2023/08/12 01:33:12;;;;;;;10.00;4.03;;;;;;;13.08;100.00;100996.11;1468492;87;21510;-79
2023/08/12 01:35:45;;;;;;;6.27;4.13;;;;;;;13.07;100.00;101005.58;1473407;87;21486;-79
2023/08/12 01:38:12;;;;;;;6.47;3.77;;;;;;;13.04;100.00;101012.52;1482231;88;21575;-79
2023/08/12 01:40:40;;;;;;;10.60;5.40;;;;;;;13.03;100.00;101002.85;1468486;88;21369;-80
2023/08/12 01:43:08;;;;;;;5.37;3.80;;;;;;;13.03;100.00;101005.05;1468224;87;21545;-79
2023/08/12 01:45:35;;;;;;;10.43;4.07;;;;;;;13.02;100.00;101003.35;1472745;87;22285;-79
2023/08/12 01:48:01;;;;;;;9.37;4.33;;;;;;;13.01;100.00;101001.69;1470916;88;21405;-79
2023/08/12 01:50:28;;;;;;;9.33;4.83;;;;;;;12.98;100.00;101001.99;1474624;87;21641;-78
2023/08/12 01:52:54;;;;;;;7.67;4.30;;;;;;;12.92;100.00;101008.38;1474396;87;21361;-79
2023/08/12 01:55:20;;;;;;;8.73;5.30;;;;;;;12.87;100.00;101004.85;1469255;88;21427;-78
2023/08/12 01:57:47;;;;;;;6.93;4.60;;;;;;;12.82;100.00;101007.11;1473481;88;22343;-78
2023/08/12 02:00:13;;;;;;;4.30;3.53;;;;;;;12.79;100.00;101006.08;1473890;87;22439;-79
2023/08/12 02:02:39;;;;;;;7.03;4.27;;;;;;;12.74;100.00;101003.02;1472630;87;21367;-79
2023/08/12 02:05:06;;;;;;;7.67;3.90;;;;;;;12.73;100.00;100999.53;1465926;87;22336;-79
2023/08/12 02:07:32;;;;;;;11.03;4.20;;;;;;;12.75;100.00;101003.39;1474508;87;21486;-82
2023/08/12 02:09:58;;;;;;;9.80;4.43;;;;;;;12.76;100.00;101013.02;1476859;88;22328;-81
2023/08/12 02:12:24;;;;;;;10.73;4.13;;;;;;;12.77;100.00;101006.70;1458896;88;21495;-82
2023/08/12 02:14:50;;;;;;;6.37;4.27;;;;;;;12.75;100.00;101011.36;1476309;87;21405;-82
2023/08/12 02:17:16;;;;;;;12.20;4.00;;;;;;;12.71;100.00;101012.12;1468311;87;22778;-80
2023/08/12 02:19:43;;;;;;;10.97;4.83;;;;;;;12.67;100.00;101016.56;1468753;88;21427;-80
2023/08/12 02:22:10;;;;;;;7.13;4.37;;;;;;;12.61;100.00;101007.36;1475372;87;21501;-82
2023/08/12 02:24:36;;;;;;;5.83;3.90;;;;;;;12.53;100.00;101015.21;1466047;87;21375;-81
2023/08/12 02:27:02;;;;;;;6.97;4.10;;;;;;;12.46;100.00;101014.97;1477994;87;21545;-82
2023/08/12 02:29:29;;;;;;;11.77;4.30;;;;;;;12.41;100.00;101026.02;1470700;88;21419;-82
2023/08/12 02:31:55;;;;;;;7.70;4.20;;;;;;;12.42;100.00;101021.53;1474402;87;22602;-79
2023/08/12 02:34:21;;;;;;;5.93;3.70;;;;;;;12.46;100.00;101022.94;1468538;88;21987;-79
2023/08/12 02:36:47;;;;;;;5.80;3.80;;;;;;;12.47;100.00;101027.75;1467219;87;21368;-80
2023/08/12 02:39:13;;;;;;;6.07;4.13;;;;;;;12.48;100.00;101028.91;1480272;87;22379;-79
2023/08/12 02:41:40;;;;;;;8.13;4.10;;;;;;;12.48;100.00;101028.08;1477525;88;21809;-79
2023/08/12 02:44:06;;;;;;;7.87;4.27;;;;;;;12.46;100.00;101019.42;1473571;88;21294;-80
2023/08/12 02:46:32;;;;;;;8.13;3.93;;;;;;;12.45;100.00;101031.86;1475539;88;21434;-82
2023/08/12 02:48:58;;;;;;;9.93;5.03;;;;;;;12.40;100.00;101032.81;1468344;87;21467;-81
2023/08/12 02:51:24;;;;;;;8.00;4.97;;;;;;;12.34;100.00;101029.38;1473145;88;22765;-81
2023/08/12 02:53:51;;;;;;;11.07;4.20;;;;;;;12.28;100.00;101025.98;1468699;88;21420;-82
2023/08/12 02:56:17;;;;;;;9.50;4.20;;;;;;;12.26;100.00;101023.98;1473594;88;21539;-81
2023/08/12 02:58:43;;;;;;;8.10;3.87;;;;;;;12.25;100.00;101022.29;1476447;87;21375;-82
2023/08/12 03:01:09;;;;;;;8.20;4.23;;;;;;;12.23;100.00;101022.45;1475325;87;21553;-79
2023/08/12 03:03:35;;;;;;;5.33;3.43;;;;;;;12.23;100.00;101019.80;1481030;87;21412;-80
2023/08/12 03:06:02;;;;;;;6.30;3.60;;;;;;;12.23;100.00;101021.59;1463841;88;21338;-80
2023/08/12 03:08:28;;;;;;;7.13;4.10;;;;;;;12.22;100.00;101021.25;1472609;87;21449;-81
2023/08/12 03:11:02;;;;;;;10.13;3.83;;;;;;;12.19;100.00;101021.05;1469658;87;21472;-80
2023/08/12 03:13:29;;;;;;;5.50;3.77;;;;;;;12.15;100.00;101023.66;1475895;87;21368;-82
2023/08/12 03:15:57;;;;;;;7.73;3.80;;;;;;;12.11;100.00;101021.78;1472337;88;22564;-81
2023/08/12 03:18:23;;;;;;;5.00;3.60;;;;;;;12.08;100.00;101016.73;1470481;87;22545;-81
2023/08/12 03:20:49;;;;;;;6.77;3.77;;;;;;;12.05;100.00;101031.61;1476043;87;21479;-82
2023/08/12 03:23:18;;;;;;;6.03;3.63;;;;;;;12.02;100.00;101028.41;1477480;88;22211;-82
2023/08/12 03:25:46;;;;;;;5.03;3.50;;;;;;;11.98;100.00;101027.03;1477458;87;21613;-82
2023/08/12 03:28:12;;;;;;;5.70;3.90;;;;;;;11.95;100.00;101028.16;1478475;88;22254;-83
2023/08/12 03:30:38;;;;;;;5.50;3.40;;;;;;;11.95;100.00;101030.80;1471906;87;21457;-82
2023/08/12 03:33:04;;;;;;;8.00;3.90;;;;;;;11.99;100.00;101024.72;1472621;88;21426;-81
2023/08/12 03:35:31;;;;;;;6.13;3.87;;;;;;;11.99;100.00;101029.53;1471563;87;21411;-82
2023/08/12 03:37:57;;;;;;;6.03;3.83;;;;;;;11.98;100.00;101031.02;1473495;87;21486;-82
2023/08/12 03:40:23;;;;;;;7.37;4.60;;;;;;;11.95;100.00;101030.31;1466901;88;21345;-82
2023/08/12 03:42:49;;;;;;;6.13;3.83;;;;;;;11.96;100.00;101033.80;1471733;88;22445;-81
2023/08/12 03:45:15;;;;;;;5.90;4.17;;;;;;;11.97;100.00;101035.48;1470574;88;21375;-83
2023/08/12 03:47:41;;;;;;;6.20;3.83;;;;;;;11.99;100.00;101034.84;1470902;87;21383;-81
2023/08/12 03:50:08;;;;;;;11.60;4.07;;;;;;;11.99;100.00;101033.51;1463350;88;21525;-82
2023/08/12 03:52:34;;;;;;;7.87;4.73;;;;;;;11.99;100.00;101037.48;1474750;88;21390;-82
2023/08/12 03:55:01;;;;;;;5.47;3.67;;;;;;;12.01;100.00;101039.52;1473539;87;22277;-82
2023/08/12 03:57:27;;;;;;;8.53;3.20;;;;;;;12.00;100.00;101037.86;1472674;87;22329;-82
2023/08/12 03:59:54;;;;;;;4.93;3.10;;;;;;;12.00;100.00;101041.84;1469511;88;21434;-83
2023/08/12 04:02:20;;;;;;;6.37;3.17;;;;;;;12.01;100.00;101037.36;1468907;87;21390;-81
2023/08/12 04:04:46;;;;;;;5.97;3.27;;;;;;;12.02;100.00;101043.83;1470362;87;22468;-82
2023/08/12 04:07:12;;;;;;;5.67;3.33;;;;;;;12.01;100.00;101038.69;1478320;87;21398;-82
2023/08/12 04:09:38;;;;;;;8.73;3.10;;;;;;;11.99;100.00;101032.18;1469640;87;21516;-83
2023/08/12 04:12:05;;;;;;;4.70;3.27;;;;;;;11.97;100.00;101036.81;1468761;88;22225;-82
2023/08/12 04:14:31;;;;;;;4.60;2.90;;;;;;;11.98;100.00;101038.97;1468630;88;21412;-83
2023/08/12 04:16:57;;;;;;;8.13;2.70;;;;;;;12.00;100.00;101043.16;1477192;88;21479;-82
2023/08/12 04:19:23;;;;;;;9.10;2.83;;;;;;;12.05;100.00;101048.02;1473600;87;21368;-81
2023/08/12 04:21:50;;;;;;;9.57;3.10;;;;;;;12.09;100.00;101046.28;1468397;87;21494;-81
2023/08/12 04:24:16;;;;;;;8.77;4.40;;;;;;;12.18;100.00;101051.22;1477544;87;21339;-82
2023/08/12 04:26:42;;;;;;;12.57;5.37;;;;;;;12.21;100.00;101051.44;1469546;88;21457;-82
2023/08/12 04:29:08;;;;;;;7.30;5.07;;;;;;;12.26;100.00;101045.21;1475500;87;22440;-82
2023/08/12 04:31:35;;;;;;;7.57;4.53;;;;;;;12.27;100.00;101041.56;1478420;87;21390;-82
2023/08/12 04:34:03;;;;;;;7.73;4.77;;;;;;;12.32;100.00;101047.29;1471598;87;21338;-80
2023/08/12 04:36:30;;;;;;;6.50;4.33;;;;;;;12.38;100.00;101041.40;1472976;87;21376;-82
2023/08/12 04:38:56;;;;;;;7.13;5.03;;;;;;;12.45;100.00;101046.46;1480013;87;21508;-83
2023/08/12 04:41:23;;;;;;;5.53;4.37;;;;;;;12.57;100.00;101050.63;1469967;87;21652;-82
2023/08/12 04:43:50;;;;;;;7.87;4.30;;;;;;;12.68;100.00;101044.28;1484379;87;21346;-83
2023/08/12 04:46:16;;;;;;;6.00;4.63;;;;;;;12.81;100.00;101049.27;1476790;88;22447;-83
2023/08/12 04:48:42;;;;;;;19.73;4.17;;;;;;;12.93;100.00;101053.41;1473761;88;21302;-84
2023/08/12 04:51:08;;;;;;;7.70;4.13;;;;;;;13.07;100.00;101049.42;1471608;87;21450;-82
2023/08/12 04:53:34;;;;;;;5.57;3.67;;;;;;;13.18;100.00;101045.73;1471273;87;21549;-83
2023/08/12 04:56:02;;;;;;;5.73;4.43;;;;;;;13.30;100.00;101053.86;1459127;88;21418;-80
2023/08/12 04:58:28;;;;;;;5.30;3.80;;;;;;;13.42;100.00;101052.64;1471438;87;21419;-80
2023/08/12 05:00:54;;;;;;;5.77;3.50;;;;;;;13.56;100.00;101055.78;1463242;88;21575;-79
2023/08/12 05:03:20;;;;;;;4.83;3.20;;;;;;;13.67;100.00;101056.39;1479334;87;22256;-79
2023/08/12 05:05:52;;;;;;;4.93;3.50;;;;;;;13.79;100.00;101058.31;1473679;88;21280;-80
2023/08/12 05:08:18;;;;;;;5.67;3.63;;;;;;;13.92;100.00;101060.06;1464928;88;22192;-77
2023/08/12 05:10:49;;;;;;;5.30;3.57;;;;;;;14.05;100.00;101061.02;1466274;87;21361;-80
2023/08/12 05:13:17;;;;;;;5.03;3.77;;;;;;;14.13;100.00;101062.41;1466685;87;21508;-81
2023/08/12 05:15:47;;;;;;;4.97;3.73;;;;;;;14.20;100.00;101057.30;1471609;88;21352;-80
2023/08/12 05:18:14;;;;;;;5.72;3.58;;;;;;;14.25;100.00;101055.01;1473614;87;21375;-80
2023/08/12 05:20:41;;;;;;;5.33;3.67;;;;;;;14.33;100.00;101060.39;1472029;88;22240;-79
2023/08/12 05:23:09;;;;;;;7.63;3.40;;;;;;;14.45;100.00;101060.45;1471078;88;21516;-83
2023/08/12 05:25:39;;;;;;;11.53;4.00;;;;;;;14.61;100.00;101062.90;1471597;88;21457;-79
2023/08/12 05:28:07;;;;;;;6.57;3.53;;;;;;;14.73;100.00;101065.65;1470017;87;21375;-80
2023/08/12 05:30:35;;;;;;;7.93;3.53;;;;;;;14.85;100.00;101060.87;1473489;88;21367;-79
2023/08/12 05:33:02;;;;;;;6.50;3.83;;;;;;;14.96;100.00;101063.25;1473693;87;21345;-80
2023/08/12 05:35:28;;;;;;;4.90;3.40;;;;;;;15.14;100.00;101071.64;1472600;88;21530;-83
2023/08/12 05:37:54;;;;;;;5.67;3.53;;;;;;;15.22;100.00;101071.17;1475054;88;21309;-83
2023/08/12 05:40:20;;;;;;;5.43;3.50;;;;;;;15.35;100.00;101071.52;1483570;87;21470;-82
2023/08/12 05:42:46;;;;;;;10.13;4.07;;;;;;;15.43;100.00;101074.71;1477088;88;22343;-83
2023/08/12 05:45:13;;;;;;;5.97;2.97;;;;;;;15.50;100.00;101077.05;1476856;88;21827;-82
2023/08/12 05:47:40;;;;;;;6.03;3.40;;;;;;;15.64;100.00;101078.24;1470577;87;21523;-82
2023/08/12 05:50:07;;;;;;;6.20;3.13;;;;;;;15.78;100.00;101076.28;1477422;88;22145;-83
2023/08/12 05:52:33;;;;;;;4.30;3.17;;;;;;;15.96;100.00;101084.63;1471979;88;22251;-82
2023/08/12 05:55:00;;;;;;;7.07;3.60;;;;;;;16.12;100.00;101081.14;1476215;87;21456;-84
2023/08/12 05:57:26;;;;;;;5.67;3.63;;;;;;;16.28;100.00;101085.62;1474920;87;21575;-83
2023/08/12 05:59:53;;;;;;;5.47;3.70;;;;;;;16.39;100.00;101088.77;1478987;88;21502;-80
2023/08/12 06:02:19;;;;;;;7.07;4.13;;;;;;;16.50;100.00;101088.09;1471841;87;22321;-79
2023/08/12 06:04:45;;;;;;;6.57;3.90;;;;;;;16.61;100.00;101087.23;1477659;88;21545;-79
2023/08/12 06:07:11;;;;;;;5.23;3.70;;;;;;;16.72;100.00;101091.89;1476031;87;21272;-78
2023/08/12 06:09:38;;;;;;;7.50;3.90;;;;;;;16.82;100.00;101091.21;1480395;87;21375;-79
2023/08/12 06:12:05;;;;;;;4.67;3.50;;;;;;;16.96;100.00;101097.69;1475465;87;21368;-79
2023/08/12 06:14:31;;;;;;;4.77;3.67;;;;;;;17.11;100.00;101084.73;1475154;88;21345;-80
2023/08/12 06:16:57;;;;;;;7.17;3.77;;;;;;;17.24;100.00;101087.37;1471572;88;21264;-80
2023/08/12 06:19:23;;;;;;;9.57;4.57;;;;;;;17.34;100.00;101083.44;1474956;87;21460;-80
2023/08/12 06:21:49;;;;;;;9.00;4.60;;;;;;;17.52;100.00;101089.88;1475461;88;21405;-82
2023/08/12 06:24:15;;;;;;;6.60;5.03;;;;;;;17.64;100.00;101088.97;1472775;88;22387;-81
2023/08/12 06:26:41;;;;;;;8.85;4.05;;;;;;;17.71;100.00;101087.73;1469885;87;21331;-80
2023/08/12 06:29:08;;;;;;;9.35;3.83;;;;;;;17.79;100.00;101085.04;1472001;87;21389;-81
2023/08/12 06:31:34;;;;;;;5.33;3.20;;;;;;;17.88;100.00;101087.98;1474712;87;21265;-82
2023/08/12 06:34:01;;;;;;;3.67;3.35;;;;;;;17.97;100.00;101082.88;1486725;87;21508;-81
2023/08/12 06:36:27;;;;;;;9.05;3.62;;;;;;;18.08;100.00;101079.45;1471135;87;21412;-81
2023/08/12 06:38:53;;;;;;;6.95;3.83;;;;;;;18.16;100.00;101081.55;1483748;88;22240;-81
2023/08/12 06:41:19;;;;;;;8.10;4.10;;;;;;;18.35;100.00;101076.16;1475112;88;21509;-80
2023/08/12 06:43:46;;;;;;;9.00;4.33;;;;;;;18.39;100.00;101076.14;1475762;87;21368;-80
2023/08/12 06:46:12;;;;;;;5.30;3.77;;;;;;;18.51;100.00;101075.70;1469554;88;21346;-78
2023/08/12 06:48:38;;;;;;;9.90;2.92;;;;;;;18.67;100.00;101076.83;1463972;87;22433;-80
2023/08/12 06:51:10;;;;;;;6.05;3.33;;;;;;;18.86;100.00;101074.97;1475528;87;21429;-81
2023/08/12 06:53:32;;;;;;;10.13;3.45;;;;;;;19.12;100.00;101083.03;1468039;87;22425;-81
2023/08/12 06:55:59;;;;;;;6.50;3.47;;;;;;;19.32;100.00;101074.70;1469530;87;21427;-81
2023/08/12 06:58:25;;;;;;;6.05;2.90;;;;;;;19.48;100.00;101070.11;1474439;88;21390;-81
2023/08/12 07:00:53;;;;;;;5.67;3.27;;;;;;;19.57;100.00;101077.87;1476326;87;21397;-82
2023/08/12 07:03:19;;;;;;;6.03;3.15;;;;;;;19.68;100.00;101078.41;1474525;87;21367;-82
2023/08/12 07:05:46;;;;;;;7.75;3.47;;;;;;;19.81;100.00;101071.31;1471070;87;21502;-80
2023/08/12 07:08:12;;;;;;;4.10;2.85;;;;;;;19.98;100.00;101076.42;1460245;88;21339;-79
2023/08/12 07:10:41;;;;;;;7.95;3.30;;;;;;;20.09;100.00;101072.39;1470085;87;21511;-80
2023/08/12 07:13:07;;;;;;;9.80;3.33;;;;;;;20.13;100.00;101073.12;1470454;88;21419;-85
2023/08/12 07:15:33;;;;;;;3.75;3.00;;;;;;;20.20;100.00;101071.34;1472863;87;21523;-85
2023/08/12 07:18:00;;;;;;;6.55;2.72;;;;;;;20.36;100.00;101072.89;1474376;88;22202;-84
2023/08/12 07:20:26;;;;;;;6.08;2.90;;;;;;;20.53;100.00;101070.76;1473410;87;21479;-85
2023/08/12 07:22:53;;;;;;;4.60;2.42;;;;;;;20.67;100.00;101068.46;1468590;87;21413;-85
2023/08/12 07:25:19;;;;;;;4.30;2.10;;;;;;;20.82;100.00;101067.50;1479273;87;21442;-84
2023/08/12 07:31:46;;;;;;;5.30;2.55;;;;;;;20.97;100.00;101065.49;1471945;88;21324;-84
2023/08/12 07:34:18;;;;;;;4.50;3.02;;;;;;;21.12;100.00;101063.51;1465071;87;21590;-83
2023/08/12 07:36:45;;;;;;;4.25;2.98;;;;;;;21.32;100.00;101058.67;1461299;87;22225;-85
2023/08/12 07:39:21;;;;;;;4.97;2.60;;;;;;;21.52;100.00;101058.27;1476012;87;21479;-84
2023/08/12 07:45:53;;;;;;;;;;;;;;;21.71;92.80;101058.48;1474429;88;21471;-85
2023/08/12 07:48:20;;;;;;;6.37;2.85;;;;;;;21.98;98.02;101053.92;1477375;88;20318;-86
2023/08/12 07:50:50;;;;;;;5.47;3.08;;;;;;;22.10;97.43;101048.24;1471439;87;21632;-87
2023/08/12 07:53:16;;;;;;;4.35;2.58;;;;;;;22.22;95.56;101051.16;1473869;87;21383;-87
2023/08/12 07:55:43;;;;;;;7.12;2.80;;;;;;;22.33;96.18;101049.67;1471430;87;21384;-86
2023/08/12 07:58:09;;;;;;;10.85;3.47;;;;;;;22.49;96.13;101053.28;1472967;87;21338;-84
2023/08/12 08:00:36;;;;;;;7.25;2.77;;;;;;;22.52;92.21;101055.03;1478669;87;22447;-83
2023/08/12 08:03:02;;;;;;;6.25;3.20;;;;;;;22.57;90.75;101044.97;1471890;87;21434;-84
2023/08/12 08:05:29;;;;;;;26.25;3.67;;;;;;;22.66;92.16;101050.96;1473924;88;21419;-87
2023/08/12 08:07:55;;;;;;;4.62;2.50;;;;;;;22.74;91.63;101045.34;1474112;87;21368;-87
2023/08/12 08:10:22;;;;;;;13.25;2.70;;;;;;;22.82;91.50;101042.41;1471864;87;21398;-87
2023/08/12 08:12:48;;;;;;;3.55;2.33;;;;;;;22.96;91.07;101053.48;1472840;87;21368;-85
2023/08/12 08:15:14;;;;;;;5.37;2.17;;;;;;;23.08;91.36;101042.02;1472652;87;21412;-86
2023/08/12 08:17:40;;;;;;;4.35;2.77;;;;;;;23.09;86.35;101047.19;1473124;87;21537;-87
2023/08/12 08:20:08;;;;;;;5.00;2.67;;;;;;;23.13;88.65;101046.23;1449021;88;22328;-87
2023/08/12 08:22:34;;;;;;;8.45;2.92;;;;;;;23.24;89.16;101042.84;1477106;87;21509;-87
2023/08/12 08:25:00;;;;;;;7.78;2.08;;;;;;;23.19;85.37;101035.41;1472503;87;21507;-89
2023/08/12 08:27:27;;;;;;;3.37;2.45;;;;;;;23.32;85.45;101037.20;1471992;88;22457;-87
2023/08/12 08:29:53;;;;;;;5.35;2.37;;;;;;;23.46;81.48;101039.30;1473341;88;23267;-86
2023/08/12 08:32:19;;;;;;;4.12;1.80;;;;;;;23.43;78.53;101041.91;1414192;90;21504;-82
2023/08/12 08:34:45;;;;;;;6.78;2.20;;;;;;;23.58;74.26;101038.07;1474422;88;21427;-85
2023/08/12 08:37:11;;;;;;;4.90;2.05;;;;;;;23.77;74.60;101043.06;1472528;88;21420;-87
2023/08/12 08:39:38;;;;;;;2.52;1.90;;;;;;;23.95;74.27;101038.23;1466585;88;22355;-86
2023/08/12 08:42:06;;;;;;;5.35;1.72;;;;;;;23.97;43.39;101037.50;1477578;88;21353;-88
2023/08/12 08:44:34;;;;;;;2.52;1.75;;;;;;;24.02;45.54;101037.64;1464346;88;21317;-88
2023/08/12 08:47:03;;;;;;;4.15;2.00;;;;;;;24.22;46.45;101035.57;1447716;88;21524;-88
2023/08/12 08:49:31;;;;;;;6.17;2.00;;;;;;;24.43;45.82;101034.91;1475403;87;21434;-88
2023/08/12 08:52:00;;;;;;;6.37;2.37;;;;;;;24.60;45.19;101033.25;1481937;88;21501;-88
2023/08/12 08:54:27;;;;;;;4.25;1.82;;;;;;;24.79;44.78;101019.70;1463962;88;21330;-89
2023/08/12 08:56:53;;;;;;;6.28;1.80;;;;;;;24.96;45.19;101027.49;1468874;88;21390;-88
2023/08/12 08:59:21;;;;;;;5.12;2.10;;;;;;;25.12;45.19;101024.16;1478273;88;21502;-88
2023/08/12 09:01:53;;;;;;;5.40;2.25;;;;;;;25.22;44.19;101016.86;1476426;87;21427;-87
2023/08/12 09:04:22;;;;;;;4.92;2.10;;;;;;;25.31;44.92;101016.00;1478526;87;22277;-88
2023/08/12 09:06:49;;;;;;;5.70;2.33;;;;;;;25.24;45.00;101013.93;1473191;87;22313;-87
2023/08/12 09:09:19;;;;;;;3.25;2.10;;;;;;;25.28;45.32;101011.87;1475403;88;21353;-88
2023/08/12 09:11:47;;;;;;;4.78;2.50;;;;;;;25.30;45.40;101013.00;1472545;88;21397;-86
2023/08/12 09:14:13;;;;;;;9.40;2.12;;;;;;;25.32;45.19;101013.08;1477733;87;21453;-88
2023/08/12 09:16:40;;;;;;;4.72;2.60;;;;;;;25.39;45.41;101011.61;1473489;87;21345;-87
2023/08/12 09:19:06;;;;;;;12.93;2.60;;;;;;;25.50;45.01;101010.00;1469240;88;22277;-87
2023/08/12 09:21:32;;;;;;;4.50;2.30;;;;;;;25.50;45.21;101010.81;1474950;88;21574;-87
2023/08/12 09:24:08;;;;;;;4.17;2.17;;;;;;;25.48;43.47;101008.86;1480100;87;21464;-83
2023/08/12 09:26:34;;;;;;;3.37;2.12;;;;;;;25.42;40.97;101012.50;1474526;87;21478;-89
2023/08/12 09:29:00;;;;;;;4.72;2.10;;;;;;;25.43;42.46;101014.14;1473312;87;21471;-87
2023/08/12 09:31:31;;;;;;;5.85;2.02;;;;;;;25.53;42.17;101006.28;1443932;88;21896;-86
2023/08/12 09:34:08;;;;;;;7.67;2.52;;;;;;;25.55;42.49;101002.82;1472911;88;21387;-86
2023/08/12 09:36:35;;;;;;;4.60;2.37;;;;;;;25.60;42.01;101004.81;1473539;87;21485;-88
2023/08/12 09:39:12;;;;;;;3.17;1.67;;;;;;;25.63;40.44;101004.34;1466029;88;21368;-89
2023/08/12 09:41:37;;;;;;;5.40;2.05;;;;;;;25.74;40.25;101004.08;1472993;88;21359;-87
2023/08/12 09:44:04;;;;;;;5.72;2.33;;;;;;;25.89;40.42;101003.10;1475531;87;21361;-88
2023/08/12 09:46:33;;;;;;;2.70;1.75;;;;;;;26.04;40.20;100998.05;1475486;87;21389;-86
2023/08/12 09:48:59;;;;;;;53.28;4.35;;;;;;;25.89;34.80;100999.03;1470930;87;21375;-83
2023/08/12 09:51:26;;;;;;;4.17;1.92;;;;;;;25.96;37.90;100999.77;1473463;87;22226;-89
2023/08/12 09:53:52;;;;;;;4.72;2.00;;;;;;;26.03;36.62;100997.73;1462467;88;21512;-89
2023/08/12 09:56:21;;;;;;;6.30;1.90;;;;;;;26.10;37.18;100995.75;1471506;87;21390;-89
2023/08/12 09:58:49;;;;;;;4.47;1.70;;;;;;;26.28;38.47;100993.42;1469185;87;21368;-85
2023/08/12 10:01:20;;;;;;;4.22;1.65;;;;;;;26.36;37.23;100987.36;1476349;87;21607;-89
2023/08/12 10:03:50;;;;;;;6.62;1.80;;;;;;;26.31;34.58;100978.56;1396823;87;21265;-89
2023/08/12 10:06:18;;;;;;;2.47;1.40;;;;;;;26.32;35.32;100978.30;1460111;88;21369;-85
2023/08/12 10:08:50;;;;;;;3.25;1.87;;;;;;;26.40;35.52;100977.13;1476900;87;21537;-90
2023/08/12 10:11:17;;;;;;;2.45;1.80;;;;;;;26.58;36.31;100969.91;1473880;87;21353;-87
2023/08/12 10:13:44;;;;;;;2.05;1.72;;;;;;;26.48;33.98;100975.40;1390457;89;21236;-92
2023/08/12 10:16:11;;;;;;;4.83;1.90;;;;;;;26.44;34.28;100975.59;1421828;87;21431;-84
2023/08/12 10:18:42;;;;;;;4.20;1.40;;;;;;;26.46;32.07;100969.91;1559072;87;21177;-89
2023/08/12 10:21:13;;;;;;;3.83;1.82;;;;;;;26.54;33.47;100970.39;1398084;87;21408;-85
2023/08/12 10:23:39;;;;;;;2.35;1.37;;;;;;;26.73;35.00;100968.87;1556467;87;21494;-86
2023/08/12 10:26:07;;;;;;;4.87;1.55;;;;;;;26.70;33.35;100963.90;1398796;88;21332;-87
2023/08/12 10:28:36;;;;;;;3.15;1.60;;;;;;;26.73;32.48;100962.09;1395622;87;21469;-87
2023/08/12 10:31:05;;;;;;;11.43;2.00;;;;;;;26.84;34.74;100965.27;1555879;88;21376;-87
2023/08/12 10:33:38;;;;;;;5.58;2.02;;;;;;;27.00;34.56;100962.31;1392844;89;21308;-86
2023/08/12 10:36:06;;;;;;;4.50;2.05;;;;;;;27.05;35.37;100960.23;1405654;88;23024;-87
2023/08/12 10:38:33;;;;;;;2.75;1.47;;;;;;;27.10;35.24;100957.59;1475218;88;21526;-87
2023/08/12 10:41:23;;;;;;;3.55;1.57;;;;;;;27.17;34.94;100957.77;1466808;88;21397;-87
2023/08/12 10:43:57;;;;;;;4.85;1.50;;;;;;;27.25;34.70;100960.62;1470303;87;21552;-87
2023/08/12 10:46:55;;;;;;;3.27;1.95;;;;;;;27.39;34.68;100953.80;1468863;87;21397;-89
2023/08/12 10:49:22;;;;;;;4.78;1.65;;;;;;;27.39;34.27;100955.16;1474533;87;21353;-87
2023/08/12 10:51:54;;;;;;;2.98;1.77;;;;;;;27.40;33.50;100953.27;1462994;88;22306;-87
2023/08/12 10:54:29;;;;;;;4.20;1.70;;;;;;;27.39;34.28;100949.72;1394484;88;21457;-86
2023/08/12 10:57:11;;;;;;;5.08;1.80;;;;;;;27.40;34.02;100950.55;1385982;91;21457;-87
2023/08/12 10:59:50;;;;;;;2.22;1.70;;;;;;;27.41;32.94;100954.90;1451034;88;21405;-85
2023/08/12 11:02:56;;;;;;;5.05;1.57;;;;;;;27.50;33.91;100947.16;1471189;87;21590;-85
2023/08/12 11:05:24;;;;;;;1.85;1.47;;;;;;;27.33;31.56;100947.96;1472068;88;21494;-87
2023/08/12 11:08:03;;;;;;;1.72;1.30;;;;;;;27.15;31.41;100945.46;1413746;88;21368;-88
2023/08/12 11:10:35;;;;;;;3.27;1.67;;;;;;;27.08;32.43;100944.80;1472170;87;22410;-88
2023/08/12 11:13:02;;;;;;;4.08;1.50;;;;;;;27.18;33.99;100942.28;1394180;87;22065;-87
2023/08/12 11:15:41;;;;;;;3.95;1.60;;;;;;;27.36;34.62;100940.70;1388801;89;21324;-87
2023/08/12 11:18:13;;;;;;;6.53;2.95;;;;;;;27.43;32.88;100936.45;1394623;87;21387;-87
2023/08/12 11:20:40;;;;;;;2.52;1.10;;;;;;;27.61;33.62;100935.37;1557876;87;21310;-86
2023/08/12 11:23:09;;;;;;;3.98;1.72;;;;;;;27.62;31.91;100926.13;1456287;87;21497;-86
2023/08/12 11:25:38;;;;;;;2.12;1.37;;;;;;;27.72;33.89;100933.09;1435633;88;22233;-89
2023/08/12 11:28:05;;;;;;;4.00;1.50;;;;;;;27.82;33.84;100926.49;1473368;88;21486;-87
2023/08/12 11:30:32;;;;;;;2.92;1.57;;;;;;;27.78;32.76;100925.84;1468913;87;21464;-87